createdAt,value
2023-03-26T00:00:09.742Z,40.95
2023-03-26T00:00:35.160Z,41.46
2023-03-26T00:00:57.537Z,41.82
2023-03-26T00:01:21.611Z,41.20
2023-03-26T00:01:46.924Z,41.56
2023-03-26T00:02:09.693Z,41.76
2023-03-26T00:02:31.743Z,41.85
2023-03-26T00:02:53.559Z,42.29
2023-03-26T00:03:16.974Z,41.91
2023-03-26T00:03:40.857Z,41.68
2023-03-26T00:04:05.639Z,41.62
2023-03-26T00:04:28.076Z,41.46
2023-03-26T00:04:49.893Z,41.36
2023-03-26T00:05:14.574Z,41.77
2023-03-26T00:05:37.295Z,41.85
2023-03-26T00:06:04.038Z,41.71
2023-03-26T00:06:27.267Z,41.62
2023-03-26T00:06:50.218Z,41.54
2023-03-26T00:07:13.034Z,41.53
2023-03-26T00:07:35.051Z,41.81
2023-03-26T00:07:56.916Z,41.72
2023-03-26T00:08:18.666Z,41.79
2023-03-26T00:08:42.129Z,41.95
2023-03-26T00:09:09.624Z,41.74
2023-03-26T00:09:31.299Z,41.74
2023-03-26T00:09:53.390Z,41.82
2023-03-26T00:10:15.413Z,42.10
2023-03-26T00:10:38.055Z,41.75
2023-03-26T00:11:01.263Z,41.65
2023-03-26T00:11:24.450Z,41.22
2023-03-26T00:11:46.470Z,41.26
2023-03-26T00:12:08.168Z,41.61
2023-03-26T00:12:29.882Z,41.43
2023-03-26T00:12:52.589Z,41.12
2023-03-26T00:13:14.170Z,41.32
2023-03-26T00:13:36.231Z,41.47
2023-03-26T00:13:58.198Z,41.30
2023-03-26T00:14:20.884Z,41.71
2023-03-26T00:14:43.587Z,41.75
2023-03-26T00:15:06.465Z,41.41
2023-03-26T00:15:28.097Z,41.29
2023-03-26T00:15:49.767Z,41.35
2023-03-26T00:16:13.822Z,41.44
2023-03-26T00:16:35.647Z,41.58
2023-03-26T00:16:57.691Z,41.70
2023-03-26T00:17:21.238Z,41.41
2023-03-26T00:17:46.517Z,41.58
2023-03-26T00:18:09.327Z,41.97
2023-03-26T00:18:34.853Z,41.94
2023-03-26T00:18:58.298Z,41.74
2023-03-26T00:19:20.574Z,41.82
2023-03-26T00:19:43.259Z,41.92
2023-03-26T00:20:08.001Z,41.56
2023-03-26T00:20:32.650Z,41.40
2023-03-26T00:20:54.258Z,41.33
2023-03-26T00:21:21.323Z,41.32
2023-03-26T00:21:42.990Z,41.44
2023-03-26T00:22:04.593Z,41.18
2023-03-26T00:22:26.469Z,41.38
2023-03-26T00:22:50.944Z,41.42
2023-03-26T00:23:13.448Z,41.23
2023-03-26T00:23:35.980Z,41.68
2023-03-26T00:23:59.843Z,41.14
2023-03-26T00:24:29.868Z,41.44
2023-03-26T00:24:51.617Z,41.31
2023-03-26T00:25:13.778Z,41.42
2023-03-26T00:25:38.218Z,41.48
2023-03-26T00:26:01.594Z,41.53
2023-03-26T00:26:24.039Z,42.19
2023-03-26T00:26:53.217Z,42.53
2023-03-26T00:27:16.139Z,41.77
2023-03-26T00:27:38.165Z,41.53
2023-03-26T00:27:59.876Z,41.50
2023-03-26T00:28:22.548Z,41.84
2023-03-26T00:28:44.638Z,41.81
2023-03-26T00:29:08.372Z,41.70
2023-03-26T00:29:33.218Z,41.57
2023-03-26T00:29:56.397Z,41.36
2023-03-26T00:30:18.208Z,41.57
2023-03-26T00:30:41.813Z,41.50
2023-03-26T00:31:05.956Z,41.38
2023-03-26T00:31:27.779Z,41.60
2023-03-26T00:31:49.428Z,41.44
2023-03-26T00:32:12.081Z,41.52
2023-03-26T00:32:33.853Z,41.74
2023-03-26T00:33:24.021Z,41.27
2023-03-26T00:33:47.649Z,41.29
2023-03-26T00:34:10.705Z,41.39
2023-03-26T00:34:34.370Z,41.21
2023-03-26T00:34:56.097Z,41.39
2023-03-26T00:35:25.318Z,41.07
2023-03-26T00:35:58.874Z,41.16
2023-03-26T00:36:21.913Z,41.25
2023-03-26T00:36:46.740Z,40.88
2023-03-26T00:37:08.798Z,41.15
2023-03-26T00:37:31.088Z,40.93
2023-03-26T00:37:53.443Z,40.78
2023-03-26T00:38:15.213Z,41.06
2023-03-26T00:38:39.383Z,40.88
2023-03-26T00:39:05.040Z,40.87
2023-03-26T00:39:27.340Z,40.98
2023-03-26T00:39:49.986Z,41.25
2023-03-26T00:40:12.694Z,41.05
2023-03-26T00:40:36.743Z,40.92
2023-03-26T00:41:06.129Z,40.96
2023-03-26T00:41:31.062Z,41.19
2023-03-26T00:41:54.426Z,41.33
2023-03-26T00:42:16.337Z,41.02
2023-03-26T00:42:38.477Z,40.68
2023-03-26T00:43:00.057Z,40.92
2023-03-26T00:43:26.404Z,40.74
2023-03-26T00:43:49.631Z,40.58
2023-03-26T00:44:11.687Z,40.78
2023-03-26T00:44:34.718Z,40.79
2023-03-26T00:44:57.699Z,40.99
2023-03-26T00:45:21.842Z,40.75
2023-03-26T00:45:43.725Z,41.20
2023-03-26T00:46:06.754Z,41.01
2023-03-26T00:46:30.610Z,41.61
2023-03-26T00:46:52.707Z,41.16
2023-03-26T00:47:14.425Z,40.76
2023-03-26T00:47:37.096Z,41.20
2023-03-26T00:47:58.851Z,40.76
2023-03-26T00:48:28.956Z,40.87
2023-03-26T00:49:00.655Z,41.26
2023-03-26T00:49:26.645Z,40.86
2023-03-26T00:49:48.837Z,41.15
2023-03-26T00:50:15.475Z,41.19
2023-03-26T00:50:37.467Z,41.45
2023-03-26T00:51:00.051Z,41.27
2023-03-26T00:51:21.774Z,41.60
2023-03-26T00:51:43.539Z,41.31
2023-03-26T00:52:08.661Z,41.45
2023-03-26T00:52:31.743Z,40.92
2023-03-26T00:52:55.882Z,41.10
2023-03-26T00:53:19.902Z,41.19
2023-03-26T00:53:42.329Z,40.78
2023-03-26T00:54:05.314Z,40.89
2023-03-26T00:54:27.155Z,40.64
2023-03-26T00:54:52.090Z,40.56
2023-03-26T00:55:13.880Z,41.06
2023-03-26T00:55:36.592Z,40.86
2023-03-26T00:56:00.228Z,40.81
2023-03-26T00:56:22.190Z,40.94
2023-03-26T00:56:43.963Z,40.84
2023-03-26T00:57:10.320Z,40.73
2023-03-26T00:57:35.796Z,40.88
2023-03-26T00:57:57.694Z,40.80
2023-03-26T00:58:22.216Z,40.85
2023-03-26T00:58:46.313Z,40.51
2023-03-26T00:59:09.207Z,40.77
2023-03-26T00:59:31.956Z,40.77
2023-03-26T00:59:53.716Z,40.87
2023-03-26T01:00:20.348Z,41.18
2023-03-26T01:00:46.889Z,41.11
2023-03-26T01:01:10.937Z,41.23
2023-03-26T01:01:32.707Z,41.06
2023-03-26T01:01:58.343Z,40.77
2023-03-26T01:02:20.858Z,40.65
2023-03-26T01:02:45.160Z,41.07
2023-03-26T01:03:07.145Z,40.88
2023-03-26T01:03:33.586Z,40.60
2023-03-26T01:04:08.099Z,40.66
2023-03-26T01:04:34.879Z,40.58
2023-03-26T01:05:02.580Z,40.85
2023-03-26T01:05:48.621Z,41.19
2023-03-26T01:06:13.580Z,41.02
2023-03-26T01:06:38.835Z,41.07
2023-03-26T01:07:04.213Z,40.74
2023-03-26T01:07:28.930Z,40.64
2023-03-26T01:07:51.550Z,40.28
2023-03-26T01:08:19.424Z,40.62
2023-03-26T01:08:45.275Z,40.88
2023-03-26T01:09:15.758Z,40.97
2023-03-26T01:09:42.674Z,40.78
2023-03-26T01:10:04.637Z,40.87
2023-03-26T01:10:26.352Z,40.52
2023-03-26T01:10:51.739Z,40.58
2023-03-26T01:11:17.092Z,40.83
2023-03-26T01:11:38.766Z,41.01
2023-03-26T01:12:03.586Z,41.45
2023-03-26T01:12:27.676Z,41.57
2023-03-26T01:12:49.542Z,41.14
2023-03-26T01:13:11.294Z,41.63
2023-03-26T01:13:36.253Z,41.26
2023-03-26T01:14:02.190Z,40.89
2023-03-26T01:14:26.856Z,40.87
2023-03-26T01:14:51.098Z,40.62
2023-03-26T01:15:13.815Z,40.70
2023-03-26T01:15:37.314Z,40.70
2023-03-26T01:16:02.042Z,40.61
2023-03-26T01:16:27.879Z,40.64
2023-03-26T01:16:52.623Z,40.65
2023-03-26T01:17:15.912Z,40.69
2023-03-26T01:17:37.962Z,40.77
2023-03-26T01:17:59.733Z,40.88
2023-03-26T01:18:26.294Z,40.68
2023-03-26T01:18:48.884Z,40.71
2023-03-26T01:19:21.204Z,40.71
2023-03-26T01:19:48.832Z,40.63
2023-03-26T01:20:15.951Z,40.81
2023-03-26T01:20:46.615Z,40.63
2023-03-26T01:21:13.802Z,40.77
2023-03-26T01:21:36.014Z,40.75
2023-03-26T01:21:58.202Z,40.73
2023-03-26T01:22:23.832Z,41.12
2023-03-26T01:22:49.447Z,40.69
2023-03-26T01:23:11.414Z,41.14
2023-03-26T01:23:39.608Z,41.42
2023-03-26T01:24:05.117Z,41.07
2023-03-26T01:24:27.021Z,40.63
2023-03-26T01:25:25.394Z,41.08
2023-03-26T01:25:59.969Z,41.39
2023-03-26T01:27:09.462Z,41.31
2023-03-26T01:27:57.278Z,41.06
2023-03-26T01:28:30.859Z,41.15
2023-03-26T01:29:10.444Z,41.13
2023-03-26T01:29:50.389Z,41.22
2023-03-26T01:30:42.032Z,41.37
2023-03-26T01:31:18.071Z,41.41
2023-03-26T01:32:04.270Z,41.29
2023-03-26T01:32:52.871Z,41.35
2023-03-26T01:33:30.427Z,41.07
2023-03-26T01:34:24.140Z,41.35
2023-03-26T01:35:12.313Z,41.13
2023-03-26T01:35:58.319Z,41.34
2023-03-26T01:36:26.096Z,41.38
2023-03-26T01:36:57.318Z,41.49
2023-03-26T01:37:30.552Z,41.27
2023-03-26T01:38:10.894Z,41.08
2023-03-26T01:39:00.463Z,41.39
2023-03-26T01:39:49.321Z,41.79
2023-03-26T01:40:23.834Z,41.53
2023-03-26T01:40:56.123Z,41.30
2023-03-26T01:41:27.753Z,41.72
2023-03-26T01:42:39.977Z,41.38
2023-03-26T01:43:29.646Z,41.62
2023-03-26T01:44:55.904Z,41.70
2023-03-26T01:45:22.466Z,41.58
2023-03-26T01:45:47.767Z,41.30
2023-03-26T01:46:12.915Z,41.52
2023-03-26T01:46:36.319Z,41.75
2023-03-26T01:47:01.565Z,41.50
2023-03-26T01:47:23.391Z,41.52
2023-03-26T01:47:46.411Z,41.58
2023-03-26T01:48:08.970Z,41.68
2023-03-26T01:48:34.969Z,41.80
2023-03-26T01:48:56.578Z,41.88
2023-03-26T01:49:18.703Z,41.53
2023-03-26T01:49:40.324Z,41.59
2023-03-26T01:50:02.363Z,42.02
2023-03-26T01:50:25.709Z,41.95
2023-03-26T01:50:48.978Z,41.99
2023-03-26T01:51:12.523Z,42.00
2023-03-26T01:51:36.024Z,42.26
2023-03-26T01:51:59.713Z,42.41
2023-03-26T01:52:26.089Z,42.68
2023-03-26T01:52:47.761Z,42.47
2023-03-26T01:53:11.666Z,42.06
2023-03-26T01:53:35.397Z,42.43
2023-03-26T01:53:59.035Z,42.28
2023-03-26T01:54:24.486Z,42.39
2023-03-26T01:54:47.708Z,41.94
2023-03-26T01:55:12.679Z,41.84
2023-03-26T01:55:49.629Z,42.06
2023-03-26T01:56:16.044Z,42.45
2023-03-26T01:56:51.395Z,41.96
2023-03-26T01:57:20.512Z,42.20
2023-03-26T01:57:53.026Z,42.00
2023-03-26T01:58:23.514Z,41.76
2023-03-26T01:58:59.797Z,41.92
2023-03-26T01:59:35.303Z,42.02
2023-03-26T02:00:12.609Z,42.23
2023-03-26T02:00:42.164Z,42.01
2023-03-26T02:01:19.537Z,42.44
2023-03-26T02:01:46.727Z,42.25
2023-03-26T02:02:14.764Z,42.22
2023-03-26T02:02:49.918Z,42.28
2023-03-26T02:03:23.457Z,42.21
2023-03-26T02:03:49.873Z,42.38
2023-03-26T02:04:21.800Z,42.51
2023-03-26T02:04:53.340Z,42.68
2023-03-26T02:05:20.573Z,42.97
2023-03-26T02:05:48.998Z,42.93
2023-03-26T02:06:20.170Z,43.10
2023-03-26T02:06:47.354Z,42.68
2023-03-26T02:07:14.865Z,42.36
2023-03-26T02:07:42.258Z,42.54
2023-03-26T02:08:12.046Z,42.46
2023-03-26T02:08:39.365Z,42.42
2023-03-26T02:09:05.918Z,42.30
2023-03-26T02:09:31.279Z,42.57
2023-03-26T02:10:00.562Z,42.94
2023-03-26T02:10:28.009Z,42.78
2023-03-26T02:10:54.951Z,42.84
2023-03-26T02:11:16.930Z,43.09
2023-03-26T02:11:41.731Z,42.93
2023-03-26T02:12:06.083Z,42.79
2023-03-26T02:12:30.216Z,43.17
2023-03-26T02:12:54.035Z,43.14
2023-03-26T02:13:16.035Z,43.28
2023-03-26T02:13:39.842Z,43.29
2023-03-26T02:14:01.521Z,43.14
2023-03-26T02:14:24.658Z,42.95
2023-03-26T02:14:46.600Z,43.06
2023-03-26T02:15:09.813Z,42.40
2023-03-26T02:15:33.164Z,42.51
2023-03-26T02:15:57.453Z,42.23
2023-03-26T02:16:20.604Z,42.42
2023-03-26T02:16:46.845Z,42.36
2023-03-26T02:17:10.679Z,42.30
2023-03-26T02:17:33.178Z,42.71
2023-03-26T02:17:54.903Z,43.11
2023-03-26T02:18:24.062Z,42.92
2023-03-26T02:18:47.621Z,43.10
2023-03-26T02:19:15.549Z,42.96
2023-03-26T02:19:41.859Z,42.77
2023-03-26T02:20:06.237Z,42.60
2023-03-26T02:20:30.499Z,42.60
2023-03-26T02:20:53.727Z,42.75
2023-03-26T02:21:20.100Z,42.81
2023-03-26T02:21:43.440Z,42.71
2023-03-26T02:22:05.438Z,42.77
2023-03-26T02:22:29.844Z,42.57
2023-03-26T02:22:52.811Z,42.73
2023-03-26T02:23:14.888Z,42.55
2023-03-26T02:23:37.954Z,42.26
2023-03-26T02:24:03.380Z,42.40
2023-03-26T02:24:27.393Z,42.53
2023-03-26T02:24:52.225Z,42.48
2023-03-26T02:25:17.608Z,42.81
2023-03-26T02:25:41.916Z,42.71
2023-03-26T02:26:06.624Z,42.96
2023-03-26T02:26:32.320Z,42.98
2023-03-26T02:27:02.232Z,42.44
2023-03-26T02:27:24.579Z,42.77
2023-03-26T02:27:49.306Z,42.72
2023-03-26T02:28:12.311Z,42.62
2023-03-26T02:28:34.499Z,42.29
2023-03-26T02:28:56.781Z,42.50
2023-03-26T02:29:20.559Z,42.36
2023-03-26T02:29:44.177Z,42.61
2023-03-26T02:30:09.573Z,42.68
2023-03-26T02:30:33.622Z,42.73
2023-03-26T02:30:57.652Z,42.64
2023-03-26T02:31:21.831Z,42.21
2023-03-26T02:31:43.699Z,42.06
2023-03-26T02:32:06.881Z,42.35
2023-03-26T02:32:29.360Z,42.14
2023-03-26T02:32:54.122Z,42.16
2023-03-26T02:33:17.626Z,42.18
2023-03-26T02:33:40.029Z,42.12
2023-03-26T02:34:01.948Z,42.08
2023-03-26T02:34:27.071Z,42.14
2023-03-26T02:34:51.246Z,42.38
2023-03-26T02:35:13.438Z,42.10
2023-03-26T02:35:35.269Z,42.54
2023-03-26T02:36:01.715Z,42.09
2023-03-26T02:36:27.869Z,42.11
2023-03-26T02:36:53.013Z,41.84
2023-03-26T02:37:15.042Z,41.92
2023-03-26T02:37:39.043Z,42.32
2023-03-26T02:38:10.423Z,42.28
2023-03-26T02:38:33.714Z,41.94
2023-03-26T02:38:58.015Z,42.07
2023-03-26T02:39:20.951Z,41.90
2023-03-26T02:39:57.377Z,42.04
2023-03-26T02:40:26.942Z,42.30
2023-03-26T02:40:49.714Z,42.31
2023-03-26T02:41:12.297Z,42.30
2023-03-26T02:41:49.580Z,42.42
2023-03-26T02:42:12.349Z,42.74
2023-03-26T02:42:41.147Z,43.24
2023-03-26T02:43:03.965Z,43.27
2023-03-26T02:43:27.043Z,43.06
2023-03-26T02:43:49.830Z,43.53
2023-03-26T02:44:14.835Z,43.36
2023-03-26T02:44:59.897Z,42.96
2023-03-26T02:45:46.892Z,42.48
2023-03-26T02:46:27.303Z,42.69
2023-03-26T02:47:00.398Z,42.46
2023-03-26T02:47:41.768Z,42.12
2023-03-26T02:48:37.275Z,42.23
2023-03-26T02:49:17.356Z,42.29
2023-03-26T02:49:39.262Z,42.15
2023-03-26T02:50:01.526Z,42.42
2023-03-26T02:50:44.536Z,41.95
2023-03-26T02:51:25.753Z,42.36
2023-03-26T02:52:10.488Z,42.17
2023-03-26T02:52:33.635Z,42.45
2023-03-26T02:52:55.333Z,42.03
2023-03-26T02:53:18.159Z,42.29
2023-03-26T02:53:47.343Z,42.22
2023-03-26T02:54:20.903Z,41.91
2023-03-26T02:54:49.814Z,41.64
2023-03-26T02:55:16.649Z,41.68
2023-03-26T02:55:41.130Z,41.88
2023-03-26T02:56:03.121Z,42.55
2023-03-26T02:56:34.029Z,43.04
2023-03-26T02:57:19.126Z,42.34
2023-03-26T02:58:04.031Z,42.06
2023-03-26T02:58:32.151Z,41.99
2023-03-26T02:58:54.158Z,42.18
2023-03-26T02:59:15.849Z,42.27
2023-03-26T02:59:40.964Z,42.70
2023-03-26T03:00:31.282Z,41.70
2023-03-26T03:01:11.539Z,41.67
2023-03-26T03:01:43.045Z,41.95
2023-03-26T03:02:06.458Z,42.73
2023-03-26T03:02:29.474Z,42.80
2023-03-26T03:02:58.668Z,42.90
2023-03-26T03:03:27.527Z,42.57
2023-03-26T03:03:52.078Z,42.21
2023-03-26T03:04:30.083Z,42.46
2023-03-26T03:04:51.946Z,42.77
2023-03-26T03:05:13.967Z,42.32
2023-03-26T03:05:37.883Z,42.27
2023-03-26T03:06:19.006Z,41.97
2023-03-26T03:06:45.838Z,42.07
2023-03-26T03:07:08.026Z,42.18
2023-03-26T03:07:29.760Z,41.92
2023-03-26T03:07:58.120Z,41.78
2023-03-26T03:08:22.909Z,41.74
2023-03-26T03:09:12.016Z,41.61
2023-03-26T03:09:34.701Z,41.72
2023-03-26T03:10:34.482Z,41.64
2023-03-26T03:11:11.741Z,41.08
2023-03-26T03:11:38.940Z,41.48
2023-03-26T03:12:00.821Z,41.31
2023-03-26T03:12:22.416Z,41.44
2023-03-26T03:12:44.240Z,41.69
2023-03-26T03:13:07.708Z,41.30
2023-03-26T03:13:31.115Z,41.66
2023-03-26T03:13:54.075Z,41.70
2023-03-26T03:14:21.217Z,41.75
2023-03-26T03:14:42.800Z,41.55
2023-03-26T03:15:05.184Z,41.77
2023-03-26T03:15:28.326Z,41.69
2023-03-26T03:15:50.418Z,41.84
2023-03-26T03:16:12.231Z,41.74
2023-03-26T03:16:34.071Z,41.84
2023-03-26T03:17:02.616Z,41.95
2023-03-26T03:17:24.430Z,41.79
2023-03-26T03:17:46.116Z,41.94
2023-03-26T03:18:07.931Z,41.94
2023-03-26T03:18:30.774Z,42.23
2023-03-26T03:18:54.503Z,42.16
2023-03-26T03:19:17.300Z,42.22
2023-03-26T03:19:39.061Z,42.06
2023-03-26T03:20:01.914Z,42.05
2023-03-26T03:20:24.579Z,42.23
2023-03-26T03:20:46.908Z,42.31
2023-03-26T03:21:08.541Z,42.18
2023-03-26T03:21:31.225Z,42.25
2023-03-26T03:21:52.909Z,42.15
2023-03-26T03:22:14.715Z,42.21
2023-03-26T03:22:37.602Z,42.19
2023-03-26T03:23:00.414Z,42.15
2023-03-26T03:23:23.177Z,42.03
2023-03-26T03:23:50.300Z,42.65
2023-03-26T03:24:13.719Z,42.58
2023-03-26T03:24:43.712Z,42.35
2023-03-26T03:25:14.397Z,42.10
2023-03-26T03:25:36.249Z,42.06
2023-03-26T03:25:58.388Z,41.74
2023-03-26T03:26:27.640Z,42.04
2023-03-26T03:26:50.347Z,42.19
2023-03-26T03:27:29.379Z,41.82
2023-03-26T03:28:02.685Z,41.66
2023-03-26T03:28:25.403Z,41.91
2023-03-26T03:28:47.919Z,42.13
2023-03-26T03:29:12.056Z,42.26
2023-03-26T03:29:34.056Z,42.37
2023-03-26T03:30:16.623Z,42.71
2023-03-26T03:30:41.732Z,42.33
2023-03-26T03:31:09.913Z,42.28
2023-03-26T03:31:32.433Z,42.37
2023-03-26T03:32:00.096Z,42.73
2023-03-26T03:32:42.248Z,41.93
2023-03-26T03:33:06.199Z,42.11
2023-03-26T03:33:28.881Z,42.20
2023-03-26T03:33:52.023Z,42.40
2023-03-26T03:34:13.929Z,42.65
2023-03-26T03:34:42.444Z,42.31
2023-03-26T03:35:04.961Z,42.49
2023-03-26T03:35:27.881Z,42.21
2023-03-26T03:35:52.987Z,42.61
2023-03-26T03:36:21.980Z,42.87
2023-03-26T03:36:57.313Z,43.08
2023-03-26T03:37:31.177Z,42.25
2023-03-26T03:37:55.469Z,42.35
2023-03-26T03:38:18.029Z,42.17
2023-03-26T03:38:42.881Z,42.13
2023-03-26T03:39:06.531Z,42.41
2023-03-26T03:39:30.562Z,42.24
2023-03-26T03:39:52.487Z,42.92
2023-03-26T03:40:17.021Z,42.69
2023-03-26T03:40:39.643Z,42.18
2023-03-26T03:41:02.683Z,42.25
2023-03-26T03:41:26.930Z,41.79
2023-03-26T03:41:49.332Z,41.82
2023-03-26T03:42:12.067Z,41.81
2023-03-26T03:42:35.284Z,42.06
2023-03-26T03:42:58.409Z,42.58
2023-03-26T03:43:29.628Z,42.11
2023-03-26T03:44:14.555Z,42.10
2023-03-26T03:44:36.246Z,42.39
2023-03-26T03:45:03.410Z,42.29
2023-03-26T03:45:38.093Z,42.36
2023-03-26T03:46:07.784Z,42.57
2023-03-26T03:46:38.167Z,43.01
2023-03-26T03:47:00.984Z,42.23
2023-03-26T03:47:22.841Z,42.27
2023-03-26T03:47:44.918Z,42.19
2023-03-26T03:48:08.284Z,42.37
2023-03-26T03:48:38.057Z,42.28
2023-03-26T03:49:02.046Z,42.23
2023-03-26T03:49:27.709Z,42.34
2023-03-26T03:49:53.595Z,42.36
2023-03-26T03:50:15.429Z,42.35
2023-03-26T03:50:50.270Z,42.39
2023-03-26T03:51:19.672Z,42.68
2023-03-26T03:51:44.311Z,42.43
2023-03-26T03:52:19.155Z,42.36
2023-03-26T03:52:41.788Z,42.59
2023-03-26T03:53:05.530Z,42.64
2023-03-26T03:53:27.333Z,42.60
2023-03-26T03:53:52.736Z,42.69
2023-03-26T03:54:29.328Z,42.46
2023-03-26T03:55:19.980Z,43.07
2023-03-26T03:55:52.917Z,42.88
2023-03-26T03:56:19.291Z,42.86
2023-03-26T03:57:04.865Z,42.67
2023-03-26T03:57:48.514Z,43.41
2023-03-26T03:58:14.668Z,43.42
2023-03-26T03:58:36.794Z,43.23
2023-03-26T03:59:06.380Z,43.18
2023-03-26T03:59:31.497Z,43.75
2023-03-26T03:59:53.912Z,43.34
2023-03-26T04:00:17.005Z,42.78
2023-03-26T04:00:41.543Z,43.30
2023-03-26T04:01:24.170Z,42.86
2023-03-26T04:01:53.935Z,42.91
2023-03-26T04:02:30.153Z,43.00
2023-03-26T04:02:56.143Z,42.92
2023-03-26T04:03:34.206Z,42.90
2023-03-26T04:03:59.352Z,43.07
2023-03-26T04:04:34.269Z,43.18
2023-03-26T04:04:59.414Z,43.94
2023-03-26T04:05:22.100Z,43.39
2023-03-26T04:05:49.561Z,43.61
2023-03-26T04:06:12.569Z,43.55
2023-03-26T04:06:36.353Z,43.52
2023-03-26T04:06:57.936Z,44.12
2023-03-26T04:07:23.159Z,43.55
2023-03-26T04:08:05.538Z,44.01
2023-03-26T04:08:39.962Z,43.83
2023-03-26T04:09:02.969Z,43.61
2023-03-26T04:09:25.051Z,43.47
2023-03-26T04:09:49.360Z,43.33
2023-03-26T04:10:16.314Z,43.25
2023-03-26T04:11:04.934Z,43.43
2023-03-26T04:11:51.134Z,43.36
2023-03-26T04:12:36.724Z,43.41
2023-03-26T04:12:59.787Z,43.82
2023-03-26T04:13:55.067Z,43.15
2023-03-26T04:14:45.921Z,43.56
2023-03-26T04:15:10.398Z,43.44
2023-03-26T04:15:33.294Z,43.85
2023-03-26T04:15:57.140Z,43.98
2023-03-26T04:16:19.456Z,43.80
2023-03-26T04:16:44.064Z,43.98
2023-03-26T04:17:06.584Z,43.66
2023-03-26T04:17:31.349Z,43.95
2023-03-26T04:17:56.631Z,44.48
2023-03-26T04:18:18.421Z,44.33
2023-03-26T04:18:42.315Z,43.81
2023-03-26T04:19:10.993Z,43.70
2023-03-26T04:19:34.823Z,43.69
2023-03-26T04:19:57.169Z,43.96
2023-03-26T04:20:24.304Z,44.18
2023-03-26T04:20:46.944Z,44.01
2023-03-26T04:21:16.262Z,43.83
2023-03-26T04:21:42.832Z,43.85
2023-03-26T04:22:04.921Z,43.31
2023-03-26T04:22:34.975Z,43.44
2023-03-26T04:23:00.103Z,43.59
2023-03-26T04:23:23.179Z,43.80
2023-03-26T04:23:51.118Z,43.75
2023-03-26T04:24:40.788Z,43.54
2023-03-26T04:25:05.810Z,43.59
2023-03-26T04:25:39.371Z,43.74
2023-03-26T04:26:16.133Z,44.18
2023-03-26T04:27:01.371Z,44.22
2023-03-26T04:27:32.494Z,44.08
2023-03-26T04:28:26.358Z,44.08
2023-03-26T04:29:04.856Z,43.55
2023-03-26T04:29:30.570Z,43.69
2023-03-26T04:29:53.608Z,43.89
2023-03-26T04:30:20.610Z,43.68
2023-03-26T04:30:48.849Z,43.38
2023-03-26T04:31:29.116Z,43.13
2023-03-26T04:31:58.579Z,43.03
2023-03-26T04:32:26.410Z,42.89
2023-03-26T04:32:49.196Z,43.60
2023-03-26T04:33:15.442Z,43.76
2023-03-26T04:33:39.162Z,43.58
2023-03-26T04:34:07.727Z,43.70
2023-03-26T04:34:38.018Z,43.31
2023-03-26T04:35:06.748Z,43.36
2023-03-26T04:35:30.279Z,43.17
2023-03-26T04:35:52.292Z,43.27
2023-03-26T04:36:17.109Z,43.71
2023-03-26T04:36:42.300Z,43.61
2023-03-26T04:37:04.916Z,43.50
2023-03-26T04:37:36.274Z,43.48
2023-03-26T04:38:21.134Z,43.16
2023-03-26T04:38:52.088Z,43.38
2023-03-26T04:39:18.625Z,43.68
2023-03-26T04:40:10.284Z,43.30
2023-03-26T04:40:34.707Z,43.46
2023-03-26T04:41:07.859Z,43.42
2023-03-26T04:41:37.374Z,43.07
2023-03-26T04:42:01.514Z,43.45
2023-03-26T04:42:33.407Z,43.11
2023-03-26T04:43:06.445Z,43.82
2023-03-26T04:43:50.336Z,43.38
2023-03-26T04:44:42.202Z,43.24
2023-03-26T04:45:07.546Z,43.74
2023-03-26T04:45:31.160Z,43.77
2023-03-26T04:45:53.947Z,43.98
2023-03-26T04:46:21.540Z,44.10
2023-03-26T04:46:48.762Z,44.07
2023-03-26T04:47:17.797Z,43.78
2023-03-26T04:47:41.000Z,43.66
2023-03-26T04:48:03.947Z,44.07
2023-03-26T04:48:25.800Z,44.09
2023-03-26T04:48:47.729Z,44.29
2023-03-26T04:49:09.561Z,44.12
2023-03-26T04:49:32.681Z,44.31
2023-03-26T04:49:54.839Z,44.30
2023-03-26T04:50:16.689Z,43.89
2023-03-26T04:50:38.923Z,44.11
2023-03-26T04:51:01.858Z,43.90
2023-03-26T04:51:27.141Z,44.15
2023-03-26T04:51:51.357Z,43.91
2023-03-26T04:52:46.524Z,43.94
2023-03-26T04:53:31.475Z,44.27
2023-03-26T04:54:08.027Z,44.33
2023-03-26T04:54:45.508Z,44.46
2023-03-26T04:55:19.937Z,44.44
2023-03-26T04:55:50.653Z,44.21
2023-03-26T04:56:34.180Z,44.71
2023-03-26T04:57:04.160Z,44.82
2023-03-26T04:57:51.080Z,43.96
2023-03-26T04:58:35.661Z,44.23
2023-03-26T04:59:01.267Z,44.17
2023-03-26T04:59:34.939Z,43.89
2023-03-26T04:59:59.600Z,43.89
2023-03-26T05:00:22.509Z,44.06
2023-03-26T05:00:50.273Z,43.86
2023-03-26T05:01:13.925Z,44.37
2023-03-26T05:01:40.124Z,44.10
2023-03-26T05:02:04.874Z,44.34
2023-03-26T05:02:33.747Z,44.06
2023-03-26T05:02:57.831Z,44.32
2023-03-26T05:03:21.026Z,44.20
2023-03-26T05:03:45.787Z,44.10
2023-03-26T05:04:10.800Z,44.27
2023-03-26T05:04:34.162Z,44.66
2023-03-26T05:04:57.458Z,44.63
2023-03-26T05:05:23.347Z,44.69
2023-03-26T05:05:49.597Z,44.75
2023-03-26T05:06:13.211Z,44.46
2023-03-26T05:06:35.174Z,44.43
2023-03-26T05:07:04.118Z,44.03
2023-03-26T05:07:33.205Z,44.20
2023-03-26T05:07:56.037Z,44.41
2023-03-26T05:08:18.550Z,44.30
2023-03-26T05:08:41.877Z,44.21
2023-03-26T05:09:10.618Z,44.54
2023-03-26T05:09:57.211Z,44.91
2023-03-26T05:10:44.187Z,44.48
2023-03-26T05:11:15.574Z,44.77
2023-03-26T05:11:37.828Z,44.79
2023-03-26T05:12:00.592Z,44.92
2023-03-26T05:12:22.693Z,44.74
2023-03-26T05:13:13.849Z,44.62
2023-03-26T05:13:42.944Z,44.46
2023-03-26T05:14:09.013Z,44.78
2023-03-26T05:14:30.893Z,44.68
2023-03-26T05:14:53.168Z,44.78
2023-03-26T05:15:25.941Z,44.83
2023-03-26T05:16:06.879Z,44.31
2023-03-26T05:16:53.419Z,44.64
2023-03-26T05:17:18.755Z,44.67
2023-03-26T05:17:42.655Z,44.89
2023-03-26T05:18:14.196Z,44.98
2023-03-26T05:18:38.779Z,44.62
2023-03-26T05:19:01.783Z,44.54
2023-03-26T05:19:27.365Z,44.66
2023-03-26T05:19:49.066Z,44.40
2023-03-26T05:20:20.498Z,44.45
2023-03-26T05:20:43.524Z,44.48
2023-03-26T05:21:06.012Z,44.23
2023-03-26T05:21:28.709Z,44.16
2023-03-26T05:21:50.645Z,44.57
2023-03-26T05:22:12.403Z,44.16
2023-03-26T05:22:43.663Z,44.46
2023-03-26T05:23:11.741Z,44.57
2023-03-26T05:23:36.891Z,44.89
2023-03-26T05:24:09.744Z,44.64
2023-03-26T05:24:31.410Z,44.81
2023-03-26T05:24:53.092Z,44.59
2023-03-26T05:25:15.815Z,44.62
2023-03-26T05:25:38.579Z,44.62
2023-03-26T05:26:09.117Z,44.43
2023-03-26T05:26:31.200Z,44.54
2023-03-26T05:26:52.818Z,44.51
2023-03-26T05:27:22.201Z,44.86
2023-03-26T05:27:43.934Z,44.43
2023-03-26T05:28:05.742Z,44.86
2023-03-26T05:28:38.818Z,44.79
2023-03-26T05:29:09.432Z,45.05
2023-03-26T05:29:36.699Z,44.99
2023-03-26T05:30:01.141Z,44.95
2023-03-26T05:30:24.371Z,44.79
2023-03-26T05:30:50.974Z,44.99
2023-03-26T05:31:12.838Z,44.98
2023-03-26T05:31:40.450Z,44.74
2023-03-26T05:32:04.540Z,44.76
2023-03-26T05:32:26.247Z,44.70
2023-03-26T05:32:49.440Z,44.98
2023-03-26T05:33:13.811Z,44.91
2023-03-26T05:33:44.196Z,44.81
2023-03-26T05:34:07.803Z,44.74
2023-03-26T05:34:29.540Z,45.00
2023-03-26T05:34:51.400Z,45.17
2023-03-26T05:35:16.752Z,45.05
2023-03-26T05:35:39.811Z,44.96
2023-03-26T05:36:06.001Z,45.33
2023-03-26T05:36:28.550Z,45.33
2023-03-26T05:37:10.120Z,45.51
2023-03-26T05:37:51.549Z,45.26
2023-03-26T05:38:17.815Z,45.45
2023-03-26T05:38:42.557Z,45.41
2023-03-26T05:39:07.063Z,45.70
2023-03-26T05:39:47.501Z,45.63
2023-03-26T05:40:29.143Z,45.64
2023-03-26T05:40:58.946Z,45.39
2023-03-26T05:41:20.857Z,45.50
2023-03-26T05:41:44.335Z,45.38
2023-03-26T05:42:07.876Z,45.52
2023-03-26T05:42:45.461Z,45.47
2023-03-26T05:43:31.453Z,45.28
2023-03-26T05:44:09.453Z,45.76
2023-03-26T05:44:31.170Z,45.59
2023-03-26T05:44:57.430Z,45.79
2023-03-26T05:45:22.981Z,45.47
2023-03-26T05:45:47.868Z,45.59
2023-03-26T05:46:20.320Z,45.67
2023-03-26T05:46:42.051Z,45.69
2023-03-26T05:47:07.013Z,45.67
2023-03-26T05:47:30.011Z,45.60
2023-03-26T05:47:54.245Z,45.81
2023-03-26T05:48:19.429Z,45.58
2023-03-26T05:48:41.203Z,45.68
2023-03-26T05:49:03.859Z,45.92
2023-03-26T05:49:28.920Z,45.98
2023-03-26T05:49:51.520Z,46.02
2023-03-26T05:50:13.554Z,45.96
2023-03-26T05:50:38.804Z,46.04
2023-03-26T05:51:00.690Z,46.28